Latest Weather Observations for Nullarbor

IDS60801

Issued at 5:35 pm CST Thursday 24 April 2014 (issued every 30 minutes, with the page automatically refreshed every 10 minutes)

About weather observations | Map of weather stations | Latest weather observations for SA | Other Formats
Station Details ID: 018106 Name: NULLARBOR Lat: -31.45 Lon: 130.90 Height: 64.0 m
Data from the previous 72 hours. | See also: Recent months at Nullarbor
Date/Time
CST
Temp
°C
App
Temp
°C
Dew
Point
Rel
Hum
%
Delta-T
°C
Wind Press
QNH
hPa
Press
MSL
hPa
Rain
since 9 am
mm
Dir
 
Spd
km/h
Gust
km/h
Spd
kts
Gust
kts
24/05:30pm 19.5 15.1 11.8 61 4.3 ESE 26 32 14 17 1016.3 - 0.0
24/05:00pm 20.6 16.0 11.2 55 5.2 SE 26 32 14 17 1016.2 - 0.0
24/04:30pm 21.6 16.7 10.1 48 6.3 SE 26 32 14 17 1016.4 - 0.0
24/04:00pm 21.9 17.3 11.0 50 6.0 ESE 26 33 14 18 1016.3 - 0.0
24/03:30pm 22.4 18.2 11.2 49 6.2 SE 24 32 13 17 1016.4 - 0.0
24/03:00pm 23.0 18.8 11.1 47 6.6 SE 24 33 13 18 1016.6 1016.4 0.0
24/02:30pm 22.7 18.8 10.8 47 6.6 SE 22 33 12 18 1016.8 - 0.0
24/02:00pm 22.7 19.3 10.5 46 6.7 ESE 19 28 10 15 1017.2 - 0.0
24/01:30pm 22.0 18.6 11.1 50 6.0 ESE 20 28 11 15 1017.7 - 0.0
24/01:00pm 22.5 19.5 10.6 47 6.6 E 17 24 9 13 1018.3 - 0.0
24/12:30pm 22.5 20.2 9.0 42 7.2 SSE 11 19 6 10 1019.0 - 0.0
24/12:00pm 21.8 19.7 9.7 46 6.5 E 11 20 6 11 1019.6 1019.4 0.0
24/11:30am 22.0 20.1 10.5 48 6.3 ENE 11 20 6 11 1019.9 - 0.0
24/11:00am 20.8 18.8 11.4 55 5.2 NE 13 19 7 10 1020.1 - 0.0
24/10:30am 20.2 17.0 11.4 57 4.8 ENE 19 26 10 14 1020.2 - 0.0
24/10:00am 18.8 16.4 12.8 68 3.4 ENE 17 22 9 12 1020.3 - 0.0
24/09:30am 17.4 15.7 13.5 78 2.2 NE 15 20 8 11 1020.2 - 0.0
24/09:00am 15.0 13.3 13.7 92 0.7 NE 15 19 8 10 1020.1 1019.9 0.0
24/08:30am 11.9 10.3 11.7 99 0.1 NNE 11 13 6 7 1019.8 - 0.0
24/08:00am 9.0 7.1 8.9 99 0.0 N 9 11 5 6 1019.6 - 0.0
24/07:30am 7.8 5.2 7.7 99 0.0 N 11 13 6 7 1019.2 - 0.0
24/07:00am 7.8 4.4 7.7 99 0.0 N 15 15 8 8 1019.0 - 0.0
24/06:30am 8.5 5.3 8.4 99 0.0 N 15 15 8 8 1018.8 - 0.0
24/06:00am 8.1 5.2 8.0 99 0.0 N 13 15 7 8 1018.8 1018.6 0.0
24/05:30am 8.1 4.8 8.0 99 0.0 NNE 15 19 8 10 1018.5 - 0.0
24/05:00am 7.9 5.1 7.1 95 0.4 NE 11 13 6 7 1018.3 - 0.0
24/04:30am 8.4 6.1 7.5 94 0.4 NE 9 9 5 5 1018.2 - 0.0
24/04:00am 9.6 8.3 9.1 97 0.2 NE 6 7 3 4 1018.3 - 0.0
24/03:30am 10.1 9.0 9.8 98 0.2 NE 6 7 3 4 1018.4 - 0.0
24/03:00am 10.2 9.1 9.9 98 0.2 NE 6 7 3 4 1018.5 1018.3 0.0
24/02:30am 10.7 9.2 10.5 99 0.1 NE 9 9 5 5 1018.6 - 0.0
24/02:00am 9.9 7.4 9.6 98 0.2 NE 13 15 7 8 1018.4 - 0.0
24/01:30am 9.8 7.1 9.0 95 0.4 NE 13 15 7 8 1018.2 - 0.0
24/01:00am 9.3 7.1 7.7 90 0.8 ESE 9 9 5 5 1018.3 - 0.0
24/12:30am 11.2 9.1 9.8 91 0.7 SE 11 13 6 7 1018.4 - 0.0
24/12:00am 11.6 8.9 10.3 92 0.7 SE 15 17 8 9 1018.4 1018.2 0.0
 
Date/Time
CST
Temp
°C
App
Temp
°C
Dew
Point
Rel
Hum
%
Delta-T
°C
Wind Press
QNH
hPa
Press
MSL
hPa
Rain
since 9 am
mm
Dir
 
Spd
km/h
Gust
km/h
Spd
kts
Gust
kts
23/11:30pm 11.6 8.1 10.2 91 0.7 SE 19 19 10 10 1018.6 - 0.0
23/11:00pm 11.6 8.7 9.7 88 1.0 ESE 15 17 8 9 1018.7 - 0.0
23/10:30pm 12.0 9.5 9.7 86 1.2 E 13 15 7 8 1018.7 - 0.0
23/10:00pm 12.6 9.4 10.1 85 1.3 E 17 19 9 10 1018.7 - 0.0
23/09:30pm 12.7 9.5 9.9 83 1.4 E 17 17 9 9 1018.5 - 0.0
23/09:00pm 13.2 10.3 9.6 79 1.8 E 15 17 8 9 1018.5 1018.3 0.0
23/08:30pm 13.7 11.3 9.9 78 2.0 ESE 13 17 7 9 1018.4 - 0.0
23/08:00pm 14.2 11.8 10.2 77 2.1 SE 13 15 7 8 1018.3 - 0.0
23/07:30pm 14.9 12.5 10.1 73 2.5 SE 13 13 7 7 1018.0 - 0.0
23/07:00pm 16.1 13.5 10.6 70 2.9 SE 15 17 8 9 1017.6 - 0.0
23/06:30pm 17.4 14.7 10.5 64 3.7 SE 15 19 8 10 1017.3 - 0.0
23/06:00pm 18.7 15.0 10.3 58 4.5 SE 20 26 11 14 1016.8 1016.6 0.0
23/05:30pm 19.9 16.0 9.5 51 5.5 SSE 20 28 11 15 1016.6 - 0.0
23/05:00pm 21.1 17.0 10.0 49 6.0 SSE 22 30 12 16 1016.5 - 0.0
23/04:30pm 21.4 17.0 9.0 45 6.6 SSE 22 30 12 16 1016.3 - 0.0
23/04:00pm 22.0 17.2 8.9 43 7.0 S 24 32 13 17 1016.5 - 0.0
23/03:30pm 22.7 17.4 8.4 40 7.6 SSE 26 32 14 17 1016.3 - 0.0
23/03:00pm 22.5 17.5 7.9 39 7.7 SSE 24 35 13 19 1016.4 1016.2 0.0
23/02:30pm 23.6 19.5 8.5 38 8.1 S 20 26 11 14 1016.4 - 0.0
23/02:00pm 22.9 19.5 7.8 38 7.9 SSE 15 24 8 13 1016.6 - 0.0
23/01:30pm 23.3 20.7 7.8 37 8.2 W 11 19 6 10 1017.0 - 0.0
23/01:00pm 23.4 20.4 7.9 37 8.2 SW 13 17 7 9 1017.7 - 0.0
23/12:30pm 22.7 20.1 7.7 38 7.9 WSW 11 19 6 10 1018.1 - 0.0
23/12:00pm 22.0 20.4 8.9 43 7.0 W 7 19 4 10 1018.4 1018.2 0.0
23/11:30am 21.3 19.7 8.2 43 6.9 NW 6 13 3 7 1018.8 - 0.0
23/11:00am 20.9 18.8 8.2 44 6.6 NW 9 15 5 8 1019.2 - 0.0
23/10:30am 19.8 17.2 9.4 51 5.5 N 13 17 7 9 1019.6 - 0.0
23/10:00am 18.1 15.3 10.0 59 4.3 N 15 19 8 10 1019.9 - 0.0
23/09:30am 16.1 14.4 10.0 67 3.2 N 9 15 5 8 1020.1 - 0.0
23/09:00am 14.3 13.4 11.3 82 1.6 N 7 13 4 7 1019.9 1019.7 0.0
23/08:30am 11.3 10.9 11.1 99 0.1 NNW 4 7 2 4 1019.9 - 0.0
23/08:00am 8.9 7.5 8.8 99 0.0 NNW 6 7 3 4 1019.7 - 0.0
23/07:30am 7.8 5.9 7.7 99 0.0 NNW 7 7 4 4 1019.5 - 0.0
23/07:00am 7.9 6.1 7.8 99 0.0 NNW 7 9 4 5 1019.3 - 0.0
23/06:30am 7.6 5.3 7.5 99 0.0 NNW 9 9 5 5 1019.3 - 0.0
23/06:00am 8.1 5.9 8.0 99 0.0 N 9 11 5 6 1019.2 1019.0 0.0
23/05:30am 7.8 5.2 7.7 99 0.0 N 11 13 6 7 1019.0 - 0.0
23/05:00am 7.5 4.4 7.4 99 0.0 N 13 13 7 7 1018.8 - 0.0
23/04:30am 7.5 3.7 7.4 99 0.0 N 17 17 9 9 1018.4 - 0.0
23/04:00am 7.8 4.8 7.5 98 0.1 N 13 13 7 7 1018.6 - 0.0
23/03:30am 8.6 6.1 8.3 98 0.1 N 11 11 6 6 1018.6 - 0.0
23/03:00am 8.6 6.1 8.3 98 0.1 NE 11 11 6 6 1018.9 1018.7 0.0
23/02:30am 9.0 6.6 8.5 97 0.2 NE 11 13 6 7 1018.8 - 0.0
23/02:00am 9.0 6.5 8.4 96 0.3 NE 11 13 6 7 1019.1 - 0.0
23/01:30am 9.2 6.3 8.3 94 0.4 ENE 13 13 7 7 1019.3 - 0.0
23/01:00am 10.0 7.0 9.1 94 0.4 E 15 15 8 8 1019.5 - 0.0
23/12:30am 10.5 7.5 9.1 91 0.7 E 15 17 8 9 1019.6 - 0.0
23/12:00am 11.7 8.9 10.1 90 0.8 E 15 17 8 9 1019.8 1019.6 0.0
 
Date/Time
CST
Temp
°C
App
Temp
°C
Dew
Point
Rel
Hum
%
Delta-T
°C
Wind Press
QNH
hPa
Press
MSL
hPa
Rain
since 9 am
mm
Dir
 
Spd
km/h
Gust
km/h
Spd
kts
Gust
kts
22/11:30pm 12.1 9.5 10.7 91 0.7 E 15 17 8 9 1020.0 - 0.0
22/11:00pm 11.7 9.1 10.6 93 0.6 E 15 19 8 10 1020.2 - 0.0
22/10:30pm 11.4 9.3 9.7 89 0.9 E 11 13 6 7 1020.4 - 0.0
22/10:00pm 12.0 9.6 10.1 88 1.0 E 13 15 7 8 1020.5 - 0.0
22/09:30pm 12.7 10.1 10.6 87 1.1 E 15 17 8 9 1020.4 - 0.0
22/09:00pm 13.4 10.9 11.1 86 1.2 ESE 15 17 8 9 1020.4 1020.2 0.0
22/08:30pm 13.3 11.1 10.8 85 1.3 SE 13 17 7 9 1020.4 - 0.0
22/08:00pm 13.7 10.8 10.9 83 1.5 SE 17 19 9 10 1020.2 - 0.0
22/07:30pm 14.4 12.1 10.6 78 2.0 SE 13 15 7 8 1020.1 - 0.0
22/07:00pm 15.7 13.5 10.9 73 2.6 SE 13 15 7 8 1019.8 - 0.0
22/06:30pm 17.0 14.3 11.7 71 2.9 SE 17 20 9 11 1019.5 - 0.0
22/06:00pm 18.0 14.8 12.0 68 3.3 SE 20 26 11 14 1019.4 1019.2 0.0
22/05:30pm 18.9 15.3 11.9 64 3.9 SE 22 28 12 15 1019.2 - 0.0
22/05:00pm 19.4 15.2 11.2 59 4.5 SE 24 30 13 16 1019.1 - 0.0
22/04:30pm 20.1 16.0 11.6 58 4.7 SE 24 32 13 17 1019.1 - 0.0
22/04:00pm 20.8 16.8 11.7 56 5.1 SE 24 30 13 16 1019.1 - 0.0
22/03:30pm 20.9 16.4 11.3 54 5.3 SE 26 33 14 18 1019.0 - 0.0
22/03:00pm 20.8 16.5 10.6 52 5.6 SE 24 33 13 18 1019.0 1018.8 0.0
22/02:30pm 21.2 17.8 11.2 53 5.5 SE 20 30 11 16 1019.0 - 0.0
22/02:00pm 21.0 17.2 11.3 54 5.4 SSE 22 30 12 16 1019.2 - 0.0
22/01:30pm 21.1 17.5 11.7 55 5.2 SE 22 35 12 19 1019.5 - 0.0
22/01:00pm 20.3 16.7 11.8 58 4.7 SE 22 32 12 17 1019.9 - 0.0
22/12:30pm 19.9 16.2 11.4 58 4.7 SE 22 30 12 16 1020.2 - 0.0
22/12:00pm 20.7 17.3 11.1 54 5.3 SE 20 28 11 15 1020.4 1020.2 0.0
22/11:30am 21.4 18.0 11.1 52 5.7 SSE 20 28 11 15 1020.5 - 0.0
22/11:00am 20.5 17.1 11.4 56 5.0 ESE 20 26 11 14 1020.7 - 0.0
22/10:30am 19.9 16.4 10.9 56 4.9 SE 20 28 11 15 1020.8 - 0.0
22/10:00am 19.9 16.7 11.9 60 4.5 SE 20 26 11 14 1020.9 - 0.0
22/09:30am 18.8 16.0 12.5 67 3.5 SE 19 26 10 14 1020.7 - 0.0
22/09:00am 19.2 16.7 13.4 69 3.3 ESE 19 26 10 14 1020.4 1020.2 0.0
22/08:30am 17.2 16.9 14.5 84 1.6 SE 9 13 5 7 1020.2 - 0.0
22/08:00am 14.8 14.0 14.0 95 0.5 SSE 11 13 6 7 1019.8 - 0.0
22/07:30am 13.3 12.1 12.7 96 0.3 SSE 11 13 6 7 1019.4 - 0.0
22/07:00am 13.9 12.8 13.1 95 0.4 SSE 11 13 6 7 1019.3 - 0.0
22/06:30am 14.2 12.8 13.4 95 0.4 S 13 13 7 7 1019.0 - 0.0
22/06:00am 14.5 13.5 13.5 94 0.6 S 11 13 6 7 1018.7 1018.5 0.0
22/05:30am 14.9 13.7 13.9 94 0.6 S 13 15 7 8 1018.4 - 0.0
22/05:00am 15.8 14.9 14.8 94 0.6 SSE 13 19 7 10 1017.9 - 0.0
22/04:30am 15.1 13.7 14.5 96 0.3 S 15 17 8 9 1017.9 - 0.0
22/04:00am 15.0 13.4 14.0 94 0.6 S 15 17 8 9 1017.7 - 0.0
22/03:30am 15.4 13.9 14.3 93 0.6 S 15 17 8 9 1017.6 - 0.0
22/03:00am 16.1 14.7 14.6 91 0.9 S 15 17 8 9 1017.6 1017.4 0.0
22/02:30am 17.1 16.1 15.6 91 0.9 S 15 19 8 10 1017.6 - 0.0
22/02:00am 17.2 16.6 16.6 96 0.4 SSE 15 20 8 11 1017.4 - 0.0
22/01:30am 17.6 16.9 17.3 98 0.2 S 17 20 9 11 1017.3 - 0.0
22/01:00am 17.8 18.1 17.0 95 0.5 SW 11 17 6 9 1017.1 - 0.0
22/12:30am 17.1 17.5 16.3 95 0.5 SW 9 11 5 6 1017.0 - 0.0
22/12:00am 16.6 16.5 16.0 96 0.4 WSW 11 13 6 7 1017.1 1016.9 0.0
 
Date/Time
CST
Temp
°C
App
Temp
°C
Dew
Point
Rel
Hum
%
Delta-T
°C
Wind Press
QNH
hPa
Press
MSL
hPa
Rain
since 9 am
mm
Dir
 
Spd
km/h
Gust
km/h
Spd
kts
Gust
kts
21/11:30pm 16.4 16.6 15.8 96 0.4 SW 9 9 5 5 1017.1 - 0.0
21/11:00pm 16.5 16.7 15.7 95 0.5 SW 9 11 5 6 1017.1 - 0.0
21/10:30pm 16.9 16.8 16.1 95 0.5 SW 11 13 6 7 1016.7 - 0.0
21/10:00pm 17.2 16.8 16.2 94 0.6 SSW 13 17 7 9 1016.4 - 0.0
21/09:30pm 17.3 16.0 15.8 91 0.9 SSW 17 19 9 10 1015.9 - 0.0
21/09:00pm 17.7 16.4 15.9 89 1.1 SSW 17 19 9 10 1015.8 1015.6 0.0
21/08:30pm 18.0 16.4 16.0 88 1.2 SSW 19 22 10 12 1015.4 - 0.0
21/08:00pm 18.5 16.4 16.3 87 1.3 SSW 22 26 12 14 1015.1 - 0.0
21/07:30pm 18.6 16.8 16.0 85 1.5 SSW 20 28 11 15 1014.8 - 0.0
21/07:00pm 19.0 17.3 16.2 84 1.7 SSW 20 28 11 15 1014.4 - 0.0
21/06:30pm 19.3 16.7 15.8 80 2.1 SSW 24 32 13 17 1013.8 - 0.0
21/06:00pm 19.9 16.4 15.5 76 2.6 SSW 28 39 15 21 1013.5 1013.2 0.0

Other Formats:

Comma delimited format used in spreadsheet applications
http://www.bom.gov.au/fwo/IDS60801/IDS60801.94651.axf

JavaScript Object Notation format (JSON) in row-major order
http://www.bom.gov.au/fwo/IDS60801/IDS60801.94651.json